Time;durP1;ratioP1;P1;durP2;ratioP2;P2;SDS_P1;SDS_P2;PMS_P1;PMS_P2;Temp;Humidity;BMP_temperature;BMP_pressure;BME280_temperature;BME280_humidity;BME280_pressure;Samples;Min_cycle;Max_cycle;Signal;HPM_P1;HPM_P2
2023/07/27 00:01:44;;;;;;;3.60;2.47;;;;;;;;;;5013663;28;20045;-67
2023/07/27 00:04:10;;;;;;;2.90;2.42;;;;;;;;;;5013330;28;20056;-67
2023/07/27 00:06:37;;;;;;;4.50;2.50;;;;;;;;;;5013096;28;20056;-67
2023/07/27 00:09:03;;;;;;;4.97;2.85;;;;;;;;;;5012845;28;20057;-68
2023/07/27 00:11:30;;;;;;;3.35;2.17;;;;;;;;;;5013277;28;20046;-67
2023/07/27 00:13:58;;;;;;;3.78;2.65;;;;;;;;;;5012797;28;20046;-68
2023/07/27 00:16:24;;;;;;;4.38;2.35;;;;;;;;;;5013100;28;20242;-68
2023/07/27 00:18:51;;;;;;;3.85;2.63;;;;;;;;;;5012794;28;20045;-68
2023/07/27 00:21:17;;;;;;;3.60;3.05;;;;;;;;;;5012963;28;20042;-68
2023/07/27 00:23:44;;;;;;;4.28;2.40;;;;;;;;;;5012499;28;20089;-67
2023/07/27 00:26:11;;;;;;;3.38;2.30;;;;;;;;;;5012880;28;20042;-67
2023/07/27 00:28:37;;;;;;;4.15;2.40;;;;;;;;;;5012556;28;20581;-67
2023/07/27 00:31:05;;;;;;;5.60;2.60;;;;;;;;;;5013377;28;20407;-68
2023/07/27 00:33:32;;;;;;;3.15;2.65;;;;;;;;;;5012727;28;20302;-68
2023/07/27 00:35:59;;;;;;;3.28;2.65;;;;;;;;;;5012989;28;20053;-68
2023/07/27 00:38:26;;;;;;;5.50;3.20;;;;;;;;;;5012789;28;20453;-67
2023/07/27 00:40:52;;;;;;;4.95;2.72;;;;;;;;;;5012406;28;20053;-67
2023/07/27 00:43:19;;;;;;;5.70;3.15;;;;;;;;;;5012655;28;20460;-67
2023/07/27 00:45:47;;;;;;;4.53;2.80;;;;;;;;;;5012030;28;20053;-67
2023/07/27 00:48:15;;;;;;;7.28;2.72;;;;;;;;;;5012661;28;20042;-67
2023/07/27 00:50:42;;;;;;;4.97;2.55;;;;;;;;;;5011960;28;20488;-67
2023/07/27 00:53:09;;;;;;;5.47;3.05;;;;;;;;;;5012491;28;20061;-67
2023/07/27 00:55:36;;;;;;;5.22;2.67;;;;;;;;;;5012443;28;20058;-68
2023/07/27 00:58:03;;;;;;;5.22;3.47;;;;;;;;;;5012824;28;20046;-67
2023/07/27 01:00:31;;;;;;;7.95;3.25;;;;;;;;;;5012196;28;20046;-67
2023/07/27 01:02:58;;;;;;;3.03;2.60;;;;;;;;;;5012906;28;20403;-67
2023/07/27 01:05:26;;;;;;;3.38;2.80;;;;;;;;;;5012034;28;20050;-68
2023/07/27 01:07:52;;;;;;;3.10;2.53;;;;;;;;;;5012608;28;20052;-67
2023/07/27 01:10:23;;;;;;;5.20;2.53;;;;;;;;;;5011484;28;20046;-68
2023/07/27 01:12:55;;;;;;;3.17;2.80;;;;;;;;;;5012056;28;20057;-68
2023/07/27 01:15:24;;;;;;;6.03;3.42;;;;;;;;;;5011848;28;20046;-68
2023/07/27 01:17:57;;;;;;;3.78;2.90;;;;;;;;;;5012053;28;20052;-67
2023/07/27 01:20:34;;;;;;;8.85;3.10;;;;;;;;;;5011593;28;20042;-68
2023/07/27 01:23:38;;;;;;;3.05;2.75;;;;;;;;;;5011842;28;20042;-67
2023/07/27 01:26:30;;;;;;;6.05;3.30;;;;;;;;;;5011652;28;20057;-68
2023/07/27 01:29:07;;;;;;;5.75;3.08;;;;;;;;;;5011542;28;20057;-68
2023/07/27 01:31:41;;;;;;;4.13;2.85;;;;;;;;;;5011321;28;20046;-68
2023/07/27 01:34:15;;;;;;;4.68;2.67;;;;;;;;;;5011964;28;20056;-68
2023/07/27 01:36:42;;;;;;;4.30;2.85;;;;;;;;;;5011392;28;20050;-68
2023/07/27 01:39:12;;;;;;;3.50;2.85;;;;;;;;;;5011634;28;20512;-68
2023/07/27 01:41:41;;;;;;;4.03;2.40;;;;;;;;;;5011217;28;20046;-67
2023/07/27 01:44:09;;;;;;;5.38;2.60;;;;;;;;;;5011596;28;20315;-67
2023/07/27 01:46:38;;;;;;;4.00;2.72;;;;;;;;;;5011731;28;20463;-67
2023/07/27 01:49:06;;;;;;;3.95;2.85;;;;;;;;;;5011000;28;20060;-68
2023/07/27 01:51:35;;;;;;;3.10;2.53;;;;;;;;;;5011548;28;20543;-67
2023/07/27 01:54:03;;;;;;;6.18;2.95;;;;;;;;;;5010934;28;20049;-68
2023/07/27 01:56:31;;;;;;;3.15;2.70;;;;;;;;;;5010787;28;20049;-67
2023/07/27 01:58:59;;;;;;;6.55;2.78;;;;;;;;;;5011172;28;20046;-68
2023/07/27 02:01:26;;;;;;;4.97;2.92;;;;;;;;;;5011542;28;20053;-68
2023/07/27 02:03:54;;;;;;;5.88;2.92;;;;;;;;;;5010819;28;20049;-67
2023/07/27 02:06:21;;;;;;;3.28;2.63;;;;;;;;;;5011388;28;20046;-67
2023/07/27 02:08:47;;;;;;;3.42;2.60;;;;;;;;;;5011147;28;20049;-68
2023/07/27 02:11:17;;;;;;;4.30;2.55;;;;;;;;;;5011173;28;20054;-68
2023/07/27 02:13:52;;;;;;;3.85;2.45;;;;;;;;;;5010858;28;20049;-68
2023/07/27 02:16:24;;;;;;;4.28;2.58;;;;;;;;;;5011043;28;20136;-67
2023/07/27 02:18:54;;;;;;;4.95;2.80;;;;;;;;;;5010811;28;20086;-68
2023/07/27 02:21:23;;;;;;;3.22;2.50;;;;;;;;;;5011030;28;20046;-68
2023/07/27 02:23:51;;;;;;;2.90;2.50;;;;;;;;;;5010732;28;20514;-68
2023/07/27 02:26:17;;;;;;;5.72;2.78;;;;;;;;;;5011190;28;20487;-68
2023/07/27 02:28:44;;;;;;;2.85;2.45;;;;;;;;;;5010984;28;20543;-68
2023/07/27 02:31:11;;;;;;;3.88;2.60;;;;;;;;;;5010731;28;20046;-68
2023/07/27 02:33:37;;;;;;;4.78;2.85;;;;;;;;;;5010956;28;20050;-68
2023/07/27 02:36:04;;;;;;;3.83;2.97;;;;;;;;;;5010574;28;20647;-68
2023/07/27 02:38:32;;;;;;;3.67;2.70;;;;;;;;;;5010572;28;20046;-68
2023/07/27 02:40:58;;;;;;;4.63;2.70;;;;;;;;;;5010561;28;20211;-68
2023/07/27 02:43:25;;;;;;;3.22;2.35;;;;;;;;;;5010997;28;20415;-68
2023/07/27 02:45:58;;;;;;;4.10;2.65;;;;;;;;;;5010293;28;20053;-68
2023/07/27 02:48:24;;;;;;;3.75;2.63;;;;;;;;;;5010628;28;20050;-67
2023/07/27 02:50:51;;;;;;;4.13;2.67;;;;;;;;;;5010357;28;20380;-68
2023/07/27 02:53:18;;;;;;;2.88;2.50;;;;;;;;;;5010725;28;20411;-68
2023/07/27 02:55:59;;;;;;;4.43;2.90;;;;;;;;;;5010098;28;20050;-68
2023/07/27 02:58:26;;;;;;;2.95;2.65;;;;;;;;;;5010121;28;20052;-68
2023/07/27 03:00:54;;;;;;;4.32;3.20;;;;;;;;;;5010032;28;20048;-68
2023/07/27 03:03:21;;;;;;;7.20;3.10;;;;;;;;;;5010603;28;20042;-67
2023/07/27 03:05:48;;;;;;;3.85;2.83;;;;;;;;;;5009979;28;20042;-68
2023/07/27 03:08:14;;;;;;;7.00;3.20;;;;;;;;;;5012680;28;20050;-68
2023/07/27 03:10:41;;;;;;;4.80;3.17;;;;;;;;;;5014633;28;20488;-67
2023/07/27 03:13:09;;;;;;;4.72;3.50;;;;;;;;;;5013906;28;20042;-68
2023/07/27 03:15:40;;;;;;;5.10;2.95;;;;;;;;;;5014610;28;20060;-68
2023/07/27 03:18:06;;;;;;;5.88;2.90;;;;;;;;;;5014100;28;20212;-68
2023/07/27 03:20:39;;;;;;;3.90;2.78;;;;;;;;;;5014493;28;20053;-68
2023/07/27 03:23:05;;;;;;;5.78;3.25;;;;;;;;;;5014030;28;20069;-68
2023/07/27 03:25:32;;;;;;;3.33;3.00;;;;;;;;;;5014133;28;20476;-68
2023/07/27 03:27:59;;;;;;;2.90;2.55;;;;;;;;;;5013545;28;20050;-68
2023/07/27 03:30:27;;;;;;;4.47;3.15;;;;;;;;;;5014087;28;20048;-68
2023/07/27 03:32:53;;;;;;;4.82;3.10;;;;;;;;;;5013900;28;20052;-68
2023/07/27 03:35:20;;;;;;;4.40;2.83;;;;;;;;;;5014072;28;20046;-68
2023/07/27 03:37:46;;;;;;;5.05;3.20;;;;;;;;;;5013799;28;20511;-68
2023/07/27 03:40:13;;;;;;;5.10;3.38;;;;;;;;;;5014052;28;20132;-68
2023/07/27 03:42:39;;;;;;;4.60;3.40;;;;;;;;;;5013667;28;20420;-68
2023/07/27 03:45:07;;;;;;;5.72;3.30;;;;;;;;;;5013915;28;20053;-68
2023/07/27 03:47:35;;;;;;;5.10;3.50;;;;;;;;;;5013599;28;20128;-68
2023/07/27 03:50:02;;;;;;;4.93;3.08;;;;;;;;;;5013343;28;20091;-68
2023/07/27 03:52:28;;;;;;;4.70;3.33;;;;;;;;;;5013893;28;20125;-68
2023/07/27 03:54:55;;;;;;;3.45;2.97;;;;;;;;;;5013269;28;20057;-68
2023/07/27 03:57:21;;;;;;;4.45;3.67;;;;;;;;;;5039068;22;20049;-66
2023/07/27 03:59:48;;;;;;;6.15;3.47;;;;;;;;;;5052409;28;20045;-66
2023/07/27 04:02:14;;;;;;;5.10;3.42;;;;;;;;;;5053202;28;20045;-66
2023/07/27 04:04:42;;;;;;;3.92;3.17;;;;;;;;;;5052916;28;20410;-66
2023/07/27 04:07:09;;;;;;;5.43;3.25;;;;;;;;;;5052825;28;20067;-67
2023/07/27 04:09:35;;;;;;;3.47;3.00;;;;;;;;;;5052523;28;20128;-66
2023/07/27 04:12:02;;;;;;;6.85;3.67;;;;;;;;;;5053462;28;20111;-67
2023/07/27 04:14:28;;;;;;;5.15;3.25;;;;;;;;;;5052614;28;20056;-68
2023/07/27 04:16:55;;;;;;;4.55;3.10;;;;;;;;;;5053008;28;20052;-68
2023/07/27 04:19:22;;;;;;;4.22;3.22;;;;;;;;;;5052144;28;20051;-66
2023/07/27 04:21:50;;;;;;;3.60;2.90;;;;;;;;;;5052459;28;20080;-67
2023/07/27 04:24:16;;;;;;;4.80;3.22;;;;;;;;;;5052848;28;20041;-66
2023/07/27 04:26:43;;;;;;;3.78;3.17;;;;;;;;;;5052088;28;20045;-67
2023/07/27 04:29:09;;;;;;;4.35;3.08;;;;;;;;;;5052852;28;20049;-67
2023/07/27 04:31:36;;;;;;;5.40;3.38;;;;;;;;;;5052045;28;20051;-67
2023/07/27 04:34:02;;;;;;;5.13;3.45;;;;;;;;;;5052811;28;20048;-67
2023/07/27 04:36:29;;;;;;;3.45;3.15;;;;;;;;;;5051963;28;20056;-67
2023/07/27 04:38:57;;;;;;;5.03;3.03;;;;;;;;;;5052783;28;20387;-67
2023/07/27 04:41:23;;;;;;;5.05;3.10;;;;;;;;;;5051665;28;20502;-67
2023/07/27 04:43:50;;;;;;;5.60;3.10;;;;;;;;;;5052297;28;20081;-67
2023/07/27 04:46:17;;;;;;;6.40;3.13;;;;;;;;;;5052027;28;20538;-67
2023/07/27 04:48:44;;;;;;;4.15;3.35;;;;;;;;;;5052233;28;20041;-67
2023/07/27 04:51:11;;;;;;;5.78;3.30;;;;;;;;;;5051444;28;20398;-67
2023/07/27 04:53:37;;;;;;;6.78;3.35;;;;;;;;;;5052450;28;20049;-66
2023/07/27 04:56:05;;;;;;;5.72;3.15;;;;;;;;;;5052069;28;20403;-67
2023/07/27 04:58:32;;;;;;;6.70;3.30;;;;;;;;;;5051938;28;20053;-67
2023/07/27 05:00:59;;;;;;;5.05;3.05;;;;;;;;;;5052172;28;20049;-67
2023/07/27 05:03:25;;;;;;;3.72;3.40;;;;;;;;;;5051985;28;20801;-67
2023/07/27 05:05:52;;;;;;;5.65;3.03;;;;;;;;;;5052149;28;20045;-67
2023/07/27 05:08:19;;;;;;;4.93;3.20;;;;;;;;;;5051392;28;20045;-67
2023/07/27 05:10:45;;;;;;;5.40;3.20;;;;;;;;;;5051378;28;20056;-67
2023/07/27 05:13:13;;;;;;;4.63;3.22;;;;;;;;;;5051021;28;20048;-67
2023/07/27 05:15:41;;;;;;;5.13;3.20;;;;;;;;;;5051559;28;20437;-67
2023/07/27 05:18:08;;;;;;;4.90;3.00;;;;;;;;;;5051208;28;20045;-67
2023/07/27 05:20:35;;;;;;;6.47;2.85;;;;;;;;;;5051445;28;20052;-67
2023/07/27 05:23:02;;;;;;;5.30;2.75;;;;;;;;;;5051606;28;20041;-67
2023/07/27 05:25:28;;;;;;;3.63;2.42;;;;;;;;;;5052042;28;20044;-67
2023/07/27 05:27:55;;;;;;;3.15;2.40;;;;;;;;;;5051464;28;20411;-67
2023/07/27 05:30:23;;;;;;;5.40;2.70;;;;;;;;;;5052031;28;20409;-67
2023/07/27 05:32:49;;;;;;;3.65;2.38;;;;;;;;;;5052280;28;20095;-67
2023/07/27 05:35:16;;;;;;;6.43;2.80;;;;;;;;;;5052526;28;20049;-67
2023/07/27 05:37:46;;;;;;;4.60;3.15;;;;;;;;;;5052320;28;20095;-67
2023/07/27 05:40:13;;;;;;;4.32;3.08;;;;;;;;;;5051554;28;20061;-67
2023/07/27 05:42:39;;;;;;;3.65;2.70;;;;;;;;;;5051298;28;20074;-67
2023/07/27 05:45:07;;;;;;;6.45;3.03;;;;;;;;;;5050549;28;20049;-67
2023/07/27 05:47:35;;;;;;;5.85;3.03;;;;;;;;;;5051101;28;20133;-67
2023/07/27 05:50:02;;;;;;;5.35;3.38;;;;;;;;;;5050881;28;20486;-67
2023/07/27 05:52:29;;;;;;;6.60;3.40;;;;;;;;;;5051207;28;20081;-67
2023/07/27 05:54:55;;;;;;;5.13;3.45;;;;;;;;;;5050941;28;20057;-67
2023/07/27 05:57:22;;;;;;;9.85;3.30;;;;;;;;;;5050832;28;20053;-67
2023/07/27 05:59:49;;;;;;;7.07;3.55;;;;;;;;;;5049954;28;20051;-67
2023/07/27 06:02:15;;;;;;;4.93;3.25;;;;;;;;;;5051112;28;20041;-67
2023/07/27 06:04:43;;;;;;;4.32;3.17;;;;;;;;;;5050538;28;20095;-67
2023/07/27 06:07:10;;;;;;;6.15;3.47;;;;;;;;;;5050241;28;20106;-67
2023/07/27 06:09:37;;;;;;;5.85;3.25;;;;;;;;;;5050004;28;20045;-68
2023/07/27 06:12:10;;;;;;;4.60;3.17;;;;;;;;;;5050635;28;20041;-66
2023/07/27 06:14:36;;;;;;;5.43;3.63;;;;;;;;;;5051103;28;20515;-68
2023/07/27 06:17:03;;;;;;;6.68;3.50;;;;;;;;;;5050593;28;20521;-66
2023/07/27 06:19:30;;;;;;;5.47;3.70;;;;;;;;;;5050331;28;20045;-66
2023/07/27 06:21:57;;;;;;;4.85;3.53;;;;;;;;;;5050195;28;20045;-66
2023/07/27 06:24:24;;;;;;;4.57;3.65;;;;;;;;;;5050654;28;20045;-66
2023/07/27 06:26:51;;;;;;;4.97;3.53;;;;;;;;;;5049500;28;20051;-66
2023/07/27 06:29:17;;;;;;;4.95;3.70;;;;;;;;;;5050651;28;20490;-66
2023/07/27 06:31:44;;;;;;;5.35;4.10;;;;;;;;;;5049872;28;20487;-66
2023/07/27 06:34:11;;;;;;;5.22;3.53;;;;;;;;;;5050948;28;20460;-66
2023/07/27 06:36:38;;;;;;;7.20;3.70;;;;;;;;;;5050454;28;20483;-68
2023/07/27 06:39:06;;;;;;;5.18;3.90;;;;;;;;;;5050603;28;20079;-66
2023/07/27 06:41:32;;;;;;;4.95;3.88;;;;;;;;;;5049648;28;20052;-66
2023/07/27 06:43:59;;;;;;;6.00;3.78;;;;;;;;;;5047918;28;20044;-67
2023/07/27 06:46:26;;;;;;;5.75;4.07;;;;;;;;;;5042208;28;20147;-68
2023/07/27 06:48:53;;;;;;;4.60;3.72;;;;;;;;;;5046495;28;20041;-67
2023/07/27 06:51:19;;;;;;;8.10;4.03;;;;;;;;;;5049515;28;20049;-67
2023/07/27 06:53:46;;;;;;;4.07;3.10;;;;;;;;;;5049465;28;20049;-67
2023/07/27 06:56:14;;;;;;;5.90;3.33;;;;;;;;;;5045620;28;20044;-67
2023/07/27 06:58:40;;;;;;;5.20;3.08;;;;;;;;;;5048176;28;20047;-67
2023/07/27 07:01:07;;;;;;;6.38;2.88;;;;;;;;;;5049227;28;20162;-70
2023/07/27 07:03:34;;;;;;;3.72;2.50;;;;;;;;;;5047680;28;20475;-70
2023/07/27 07:06:00;;;;;;;2.92;2.30;;;;;;;;;;5049481;28;20274;-70
2023/07/27 07:08:27;;;;;;;4.03;2.30;;;;;;;;;;5048798;28;20045;-70
2023/07/27 07:10:53;;;;;;;5.30;2.22;;;;;;;;;;5048236;28;20076;-67
2023/07/27 07:13:21;;;;;;;1.60;1.50;;;;;;;;;;5048667;28;20045;-67
2023/07/27 07:15:48;;;;;;;3.05;1.85;;;;;;;;;;5047028;28;20049;-68
2023/07/27 07:18:15;;;;;;;2.28;1.80;;;;;;;;;;5049547;28;20049;-67
2023/07/27 07:20:42;;;;;;;3.60;1.73;;;;;;;;;;5048103;28;20084;-67
2023/07/27 07:23:08;;;;;;;2.45;2.00;;;;;;;;;;5048893;28;20053;-67
2023/07/27 07:25:35;;;;;;;4.22;1.90;;;;;;;;;;5048046;28;20041;-67
2023/07/27 07:28:01;;;;;;;3.40;1.60;;;;;;;;;;5046431;28;20041;-67
2023/07/27 07:30:29;;;;;;;3.00;2.08;;;;;;;;;;5049173;28;20077;-67
2023/07/27 07:32:56;;;;;;;4.55;2.03;;;;;;;;;;5048878;28;20045;-67
2023/07/27 07:35:22;;;;;;;2.33;1.70;;;;;;;;;;5049690;28;20049;-67
2023/07/27 07:37:49;;;;;;;2.40;2.00;;;;;;;;;;5049097;28;20139;-67
2023/07/27 07:40:16;;;;;;;3.03;1.90;;;;;;;;;;5049876;28;20047;-67
2023/07/27 07:42:43;;;;;;;3.05;1.77;;;;;;;;;;5049795;28;20045;-67
2023/07/27 07:45:11;;;;;;;3.20;2.00;;;;;;;;;;5049858;28;20048;-67
2023/07/27 07:47:38;;;;;;;3.65;2.22;;;;;;;;;;5049371;28;20056;-67
2023/07/27 07:50:06;;;;;;;3.30;2.10;;;;;;;;;;5048663;28;20060;-67
2023/07/27 07:52:49;;;;;;;3.00;2.25;;;;;;;;;;5049304;28;20045;-67
2023/07/27 07:55:16;;;;;;;2.30;2.00;;;;;;;;;;5051450;28;20049;-67
2023/07/27 07:57:42;;;;;;;3.55;2.40;;;;;;;;;;5053046;28;20044;-67
2023/07/27 08:00:09;;;;;;;2.40;1.80;;;;;;;;;;5052590;28;20041;-67
2023/07/27 08:02:36;;;;;;;3.35;2.17;;;;;;;;;;5052827;28;20255;-67
2023/07/27 08:05:04;;;;;;;3.35;2.33;;;;;;;;;;5052909;28;20059;-67
2023/07/27 08:07:31;;;;;;;3.85;2.30;;;;;;;;;;5053031;28;20240;-66
2023/07/27 08:09:58;;;;;;;4.13;2.50;;;;;;;;;;5052542;28;20053;-67
2023/07/27 08:12:25;;;;;;;2.30;1.88;;;;;;;;;;5053101;28;20487;-66
2023/07/27 08:14:52;;;;;;;3.60;2.42;;;;;;;;;;5052529;28;20041;-67
2023/07/27 08:17:18;;;;;;;3.03;2.33;;;;;;;;;;5052562;28;20048;-67
2023/07/27 08:19:45;;;;;;;2.83;2.28;;;;;;;;;;5052043;28;20063;-67
2023/07/27 08:22:13;;;;;;;2.45;2.20;;;;;;;;;;5053395;28;20049;-67
2023/07/27 08:24:39;;;;;;;4.20;2.33;;;;;;;;;;5052404;28;20219;-67
2023/07/27 08:27:08;;;;;;;2.30;2.10;;;;;;;;;;5052933;28;20045;-67
2023/07/27 08:29:34;;;;;;;2.95;2.40;;;;;;;;;;5051759;28;20189;-66
2023/07/27 08:32:01;;;;;;;3.97;2.15;;;;;;;;;;5052690;28;20041;-68
2023/07/27 08:34:27;;;;;;;4.05;1.77;;;;;;;;;;5052742;28;20055;-67
2023/07/27 08:36:54;;;;;;;3.58;2.45;;;;;;;;;;5052269;28;20530;-67
2023/07/27 08:39:22;;;;;;;2.40;2.20;;;;;;;;;;5052368;28;20055;-67
2023/07/27 08:41:49;;;;;;;3.90;2.05;;;;;;;;;;5051653;28;20045;-68
2023/07/27 08:44:15;;;;;;;4.78;2.35;;;;;;;;;;5052716;28;20048;-68
2023/07/27 08:46:42;;;;;;;4.85;2.13;;;;;;;;;;5051827;28;20106;-68
2023/07/27 08:49:12;;;;;;;5.38;2.50;;;;;;;;;;5052900;28;20453;-68
2023/07/27 08:51:40;;;;;;;2.75;2.22;;;;;;;;;;5051554;28;20049;-68
2023/07/27 08:54:06;;;;;;;3.35;2.35;;;;;;;;;;5052301;28;20126;-68
2023/07/27 08:56:34;;;;;;;3.30;2.40;;;;;;;;;;5051744;28;20410;-68
2023/07/27 08:59:01;;;;;;;3.20;2.42;;;;;;;;;;5051864;28;20392;-68
2023/07/27 09:01:28;;;;;;;3.20;2.30;;;;;;;;;;5051614;28;20397;-68
2023/07/27 09:03:55;;;;;;;4.72;2.28;;;;;;;;;;5052203;28;20140;-67
2023/07/27 09:06:37;;;;;;;4.18;2.10;;;;;;;;;;5051075;28;20045;-68
2023/07/27 09:09:15;;;;;;;4.78;2.40;;;;;;;;;;5052297;28;20328;-68
2023/07/27 09:11:43;;;;;;;2.25;2.03;;;;;;;;;;5051151;28;20052;-68
2023/07/27 09:14:10;;;;;;;3.38;2.50;;;;;;;;;;5051999;28;20431;-68
2023/07/27 09:16:37;;;;;;;3.08;2.60;;;;;;;;;;5051610;28;20045;-68
2023/07/27 09:19:06;;;;;;;2.72;2.30;;;;;;;;;;5051794;28;20186;-67
2023/07/27 09:21:39;;;;;;;2.95;2.30;;;;;;;;;;5051359;28;20495;-68
2023/07/27 09:24:09;;;;;;;5.47;2.40;;;;;;;;;;5039552;28;20056;-68
2023/07/27 09:26:38;;;;;;;3.70;2.40;;;;;;;;;;5041501;28;20483;-68
2023/07/27 09:29:08;;;;;;;3.55;2.40;;;;;;;;;;5047403;28;20045;-66
2023/07/27 09:31:36;;;;;;;2.80;2.20;;;;;;;;;;5050151;28;20048;-66
2023/07/27 09:34:05;;;;;;;4.65;2.53;;;;;;;;;;5047425;28;20103;-67
2023/07/27 09:36:32;;;;;;;2.58;2.08;;;;;;;;;;5044262;28;20080;-67
2023/07/27 09:38:58;;;;;;;3.50;1.75;;;;;;;;;;5049473;28;20055;-67
2023/07/27 09:41:25;;;;;;;3.97;2.25;;;;;;;;;;5049270;28;20052;-67
2023/07/27 09:43:53;;;;;;;2.10;1.85;;;;;;;;;;5047834;28;20273;-68
2023/07/27 09:46:23;;;;;;;4.15;2.10;;;;;;;;;;5049620;28;20127;-67
2023/07/27 09:48:51;;;;;;;2.10;1.90;;;;;;;;;;5049903;28;20045;-67
2023/07/27 09:51:19;;;;;;;2.58;1.92;;;;;;;;;;5049217;28;20572;-67
2023/07/27 09:53:46;;;;;;;3.78;1.88;;;;;;;;;;5049672;28;20091;-67
2023/07/27 09:56:13;;;;;;;2.53;1.88;;;;;;;;;;5049799;28;20056;-67
2023/07/27 09:58:41;;;;;;;2.63;1.83;;;;;;;;;;5062684;22;20075;-66
2023/07/27 10:01:08;;;;;;;2.22;1.60;;;;;;;;;;5049681;28;20045;-68
2023/07/27 10:03:36;;;;;;;2.40;2.00;;;;;;;;;;5050775;28;20073;-65
2023/07/27 10:06:04;;;;;;;13.98;8.85;;;;;;;;;;5050767;28;20051;-68
2023/07/27 10:08:31;;;;;;;2.20;1.80;;;;;;;;;;5049741;28;20045;-64
2023/07/27 10:11:00;;;;;;;1.98;1.83;;;;;;;;;;5050412;28;20045;-65
2023/07/27 10:13:41;;;;;;;1.90;1.67;;;;;;;;;;5050079;28;20138;-66
2023/07/27 10:16:10;;;;;;;2.20;1.75;;;;;;;;;;5050314;28;20049;-65
2023/07/27 10:18:42;;;;;;;1.70;1.52;;;;;;;;;;5048772;28;20053;-65
2023/07/27 10:21:23;;;;;;;1.92;1.73;;;;;;;;;;5050414;28;20463;-65
2023/07/27 10:23:54;;;;;;;2.08;1.40;;;;;;;;;;5049551;28;20049;-65
2023/07/27 10:26:21;;;;;;;2.10;1.70;;;;;;;;;;5050151;28;20277;-66
2023/07/27 10:28:49;;;;;;;1.70;1.50;;;;;;;;;;5049930;28;20506;-65
2023/07/27 10:31:21;;;;;;;2.67;1.70;;;;;;;;;;5049703;28;20251;-66
2023/07/27 10:33:53;;;;;;;1.98;1.50;;;;;;;;;;5050268;28;20147;-65
2023/07/27 10:36:20;;;;;;;1.58;1.40;;;;;;;;;;5049636;28;20053;-65
2023/07/27 10:38:53;;;;;;;3.22;1.45;;;;;;;;;;5050081;28;20311;-65
2023/07/27 10:41:21;;;;;;;1.38;1.27;;;;;;;;;;5049297;28;20053;-66
2023/07/27 10:44:16;;;;;;;1.67;1.30;;;;;;;;;;5049744;28;20049;-66
2023/07/27 10:46:46;;;;;;;1.98;1.33;;;;;;;;;;5048998;28;20048;-66
2023/07/27 10:49:16;;;;;;;1.85;1.48;;;;;;;;;;5050056;28;20094;-65
2023/07/27 10:51:44;;;;;;;2.58;1.40;;;;;;;;;;5049114;28;20068;-66
2023/07/27 10:54:10;;;;;;;3.22;1.75;;;;;;;;;;5049797;28;20106;-66
2023/07/27 10:56:37;;;;;;;2.25;1.75;;;;;;;;;;5049991;28;20049;-66
2023/07/27 10:59:04;;;;;;;1.75;1.50;;;;;;;;;;5050056;28;20049;-65
2023/07/27 11:01:31;;;;;;;2.15;1.30;;;;;;;;;;5050116;28;20052;-65
2023/07/27 11:03:58;;;;;;;1.77;1.40;;;;;;;;;;5049062;28;20284;-70
2023/07/27 11:06:28;;;;;;;2.50;1.30;;;;;;;;;;5049724;28;20490;-66
2023/07/27 11:08:54;;;;;;;2.03;1.70;;;;;;;;;;5049705;28;20136;-66
2023/07/27 11:11:23;;;;;;;2.97;2.20;;;;;;;;;;5049948;28;20045;-66
2023/07/27 11:13:51;;;;;;;2.00;1.45;;;;;;;;;;5049203;28;20045;-66
2023/07/27 11:16:18;;;;;;;1.73;1.63;;;;;;;;;;5049941;28;20419;-66
2023/07/27 11:18:45;;;;;;;3.63;1.63;;;;;;;;;;5035712;28;20050;-67
2023/07/27 11:21:12;;;;;;;3.28;1.63;;;;;;;;;;5039781;28;20051;-67
2023/07/27 11:23:44;;;;;;;1.90;1.58;;;;;;;;;;5049430;28;20049;-67
2023/07/27 11:26:12;;;;;;;2.20;1.42;;;;;;;;;;5048989;28;20047;-66
2023/07/27 11:28:40;;;;;;;2.22;1.35;;;;;;;;;;5050834;28;20040;-66
2023/07/27 11:31:07;;;;;;;2.35;1.42;;;;;;;;;;5053046;28;20453;-67
2023/07/27 11:33:34;;;;;;;2.85;1.27;;;;;;;;;;5053723;28;20051;-66
2023/07/27 11:36:01;;;;;;;2.20;1.40;;;;;;;;;;5053598;28;20045;-67
2023/07/27 11:38:28;;;;;;;1.65;1.30;;;;;;;;;;5053655;28;20045;-66
2023/07/27 11:40:58;;;;;;;4.38;2.40;;;;;;;;;;5053166;28;20055;-67
2023/07/27 11:43:24;;;;;;;1.80;1.60;;;;;;;;;;5053332;28;20473;-66
2023/07/27 11:45:51;;;;;;;1.60;1.50;;;;;;;;;;5054209;28;20052;-66
2023/07/27 11:48:17;;;;;;;2.53;2.00;;;;;;;;;;5052267;28;20052;-67
2023/07/27 11:50:44;;;;;;;1.98;1.80;;;;;;;;;;5053155;28;20581;-66
2023/07/27 11:53:11;;;;;;;3.85;2.40;;;;;;;;;;5053333;28;20056;-67
2023/07/27 11:55:38;;;;;;;3.97;1.90;;;;;;;;;;5053946;28;20045;-66
2023/07/27 11:58:08;;;;;;;1.95;1.30;;;;;;;;;;5052960;28;20045;-66
2023/07/27 12:00:35;;;;;;;1.60;1.20;;;;;;;;;;5053249;28;20053;-66
2023/07/27 12:03:02;;;;;;;1.50;1.33;;;;;;;;;;5053934;28;20504;-66
2023/07/27 12:05:28;;;;;;;2.90;1.70;;;;;;;;;;5053282;28;20080;-66
2023/07/27 12:07:56;;;;;;;2.60;1.50;;;;;;;;;;5053541;28;20103;-66
2023/07/27 12:10:23;;;;;;;2.65;1.30;;;;;;;;;;5053166;28;20501;-66
2023/07/27 12:12:55;;;;;;;2.85;1.30;;;;;;;;;;5053413;28;20460;-66
2023/07/27 12:15:28;;;;;;;2.15;1.50;;;;;;;;;;5053054;28;20056;-66
2023/07/27 12:17:56;;;;;;;2.53;1.40;;;;;;;;;;5053716;28;20045;-66
2023/07/27 12:20:22;;;;;;;3.10;1.60;;;;;;;;;;5052881;28;20139;-66
2023/07/27 12:22:49;;;;;;;2.28;1.55;;;;;;;;;;5053309;28;20111;-66
2023/07/27 12:25:16;;;;;;;1.50;1.35;;;;;;;;;;5052949;28;20063;-66
2023/07/27 12:27:42;;;;;;;2.10;1.50;;;;;;;;;;5053106;28;20060;-66
2023/07/27 12:30:10;;;;;;;1.95;1.45;;;;;;;;;;5052785;28;20074;-66
2023/07/27 12:32:38;;;;;;;2.22;1.30;;;;;;;;;;5053219;28;20049;-66
2023/07/27 12:35:06;;;;;;;3.22;1.50;;;;;;;;;;5053194;28;20045;-66
2023/07/27 12:37:33;;;;;;;1.50;1.40;;;;;;;;;;5052565;28;20053;-66
2023/07/27 12:39:59;;;;;;;2.47;1.60;;;;;;;;;;5052114;28;20421;-66
2023/07/27 12:42:26;;;;;;;2.03;1.50;;;;;;;;;;5052516;28;20040;-66
2023/07/27 12:44:53;;;;;;;3.22;1.58;;;;;;;;;;5052990;28;20045;-66
2023/07/27 12:47:20;;;;;;;2.22;1.50;;;;;;;;;;5052427;28;20514;-66
2023/07/27 12:49:48;;;;;;;1.38;1.27;;;;;;;;;;5052721;28;20056;-66
2023/07/27 12:52:14;;;;;;;1.55;1.40;;;;;;;;;;5052437;28;20040;-66
2023/07/27 12:54:41;;;;;;;2.22;1.65;;;;;;;;;;5052879;28;20045;-67
2023/07/27 12:57:08;;;;;;;1.90;1.25;;;;;;;;;;5052326;28;20049;-66
2023/07/27 12:59:35;;;;;;;1.90;1.70;;;;;;;;;;5052664;28;20487;-66
2023/07/27 13:02:01;;;;;;;2.67;1.50;;;;;;;;;;5051940;28;20045;-66
2023/07/27 13:04:28;;;;;;;2.55;1.63;;;;;;;;;;5052531;28;20047;-66
2023/07/27 13:06:56;;;;;;;2.05;1.80;;;;;;;;;;5052307;28;20045;-66
2023/07/27 13:09:22;;;;;;;2.05;1.73;;;;;;;;;;5052822;28;20132;-66
2023/07/27 13:11:49;;;;;;;1.88;1.52;;;;;;;;;;5052609;28;20045;-67
2023/07/27 13:14:17;;;;;;;2.67;2.28;;;;;;;;;;5052122;28;20067;-66
2023/07/27 13:16:44;;;;;;;3.65;2.55;;;;;;;;;;5052548;28;20479;-66
2023/07/27 13:19:10;;;;;;;5.15;3.53;;;;;;;;;;5051816;28;20045;-66
2023/07/27 13:21:37;;;;;;;3.10;2.30;;;;;;;;;;5052229;28;20137;-67
2023/07/27 13:24:05;;;;;;;3.70;2.05;;;;;;;;;;5051666;28;20099;-66
2023/07/27 13:26:32;;;;;;;3.47;2.13;;;;;;;;;;5052335;28;20071;-66
2023/07/27 13:28:58;;;;;;;2.28;1.92;;;;;;;;;;5051401;28;20045;-66
2023/07/27 13:31:26;;;;;;;3.45;2.08;;;;;;;;;;5051537;28;20041;-66
2023/07/27 13:33:53;;;;;;;2.85;1.80;;;;;;;;;;5051526;28;20045;-66
2023/07/27 13:36:19;;;;;;;4.75;1.95;;;;;;;;;;5051948;28;20049;-66
2023/07/27 13:38:46;;;;;;;2.90;2.05;;;;;;;;;;5051397;28;20521;-66
2023/07/27 13:41:13;;;;;;;2.28;1.88;;;;;;;;;;5051942;28;20083;-66
2023/07/27 13:43:40;;;;;;;2.67;2.10;;;;;;;;;;5051580;28;20060;-66
2023/07/27 13:46:07;;;;;;;4.53;2.10;;;;;;;;;;5051869;28;20045;-66
2023/07/27 13:48:33;;;;;;;4.22;2.22;;;;;;;;;;5051749;28;20056;-66
2023/07/27 13:51:00;;;;;;;2.60;2.10;;;;;;;;;;5051210;28;20041;-66
2023/07/27 13:53:26;;;;;;;2.47;2.03;;;;;;;;;;5050993;28;20414;-66
2023/07/27 13:55:53;;;;;;;4.63;2.20;;;;;;;;;;5051209;28;20041;-66
2023/07/27 13:58:21;;;;;;;2.88;1.95;;;;;;;;;;5051203;28;20045;-66
2023/07/27 14:00:48;;;;;;;4.20;2.97;;;;;;;;;;5051196;28;20498;-67
2023/07/27 14:03:15;;;;;;;2.78;2.22;;;;;;;;;;5051458;28;20556;-66
2023/07/27 14:05:41;;;;;;;3.15;2.50;;;;;;;;;;5050900;28;20045;-68
2023/07/27 14:08:08;;;;;;;3.15;2.17;;;;;;;;;;5051467;28;20052;-68
2023/07/27 14:10:35;;;;;;;3.22;2.35;;;;;;;;;;5051170;28;20045;-67
2023/07/27 14:13:01;;;;;;;2.72;2.08;;;;;;;;;;5051490;28;20048;-68
2023/07/27 14:15:29;;;;;;;3.35;2.50;;;;;;;;;;5051133;28;20656;-67
2023/07/27 14:17:56;;;;;;;3.67;2.60;;;;;;;;;;5051622;28;20080;-68
2023/07/27 14:20:22;;;;;;;4.20;2.63;;;;;;;;;;5051172;28;20379;-67
2023/07/27 14:22:49;;;;;;;2.88;2.35;;;;;;;;;;5050949;28;20414;-67
2023/07/27 14:25:15;;;;;;;3.00;2.35;;;;;;;;;;5050929;28;20403;-67
2023/07/27 14:27:42;;;;;;;3.00;2.17;;;;;;;;;;5050424;28;20056;-67
2023/07/27 14:30:09;;;;;;;3.80;2.33;;;;;;;;;;5051099;28;20068;-67
2023/07/27 14:32:37;;;;;;;3.00;2.03;;;;;;;;;;5050571;28;20057;-68
2023/07/27 14:35:04;;;;;;;2.92;2.50;;;;;;;;;;5050979;28;20049;-67
2023/07/27 14:37:30;;;;;;;6.53;3.13;;;;;;;;;;5050826;28;20449;-67
2023/07/27 14:39:57;;;;;;;2.40;2.20;;;;;;;;;;5051036;28;20406;-66
2023/07/27 14:42:23;;;;;;;5.70;2.90;;;;;;;;;;5050590;28;20055;-67
2023/07/27 14:44:50;;;;;;;4.05;2.33;;;;;;;;;;5050600;28;20041;-67
2023/07/27 14:47:17;;;;;;;4.22;2.47;;;;;;;;;;5050765;28;20040;-67